Time;durP1;ratioP1;P1;durP2;ratioP2;P2;SDS_P1;SDS_P2;PMS_P1;PMS_P2;Temp;Humidity;BMP_temperature;BMP_pressure;BME280_temperature;BME280_humidity;BME280_pressure;Samples;Min_cycle;Max_cycle;Signal;HPM_P1;HPM_P2
2022/11/06 00:00:10;;;;;;;3.92;2.80;;;;;;;18.77;54.11;101333.72;5123837;28;20019;-58
2022/11/06 00:02:35;;;;;;;4.75;3.28;;;;;;;18.77;53.74;101330.19;5123449;28;20024;-58
2022/11/06 00:06:46;;;;;;;4.53;3.33;;;;;;;18.75;54.21;101332.22;5136733;27;20031;-58
2022/11/06 00:07:46;;;;;;;5.20;3.03;;;;;;;18.68;54.03;101313.94;5135034;28;20055;-58
2022/11/06 00:10:15;;;;;;;5.80;3.58;;;;;;;18.76;54.03;101333.88;5126510;27;20023;-58
2022/11/06 00:12:41;;;;;;;4.85;3.10;;;;;;;18.68;54.15;101327.41;5133101;28;20027;-58
2022/11/06 00:15:06;;;;;;;4.30;3.17;;;;;;;18.76;54.05;101317.72;5137958;28;20030;-57
2022/11/06 00:17:32;;;;;;;4.40;2.70;;;;;;;18.75;54.19;101322.28;5131493;28;20079;-57
2022/11/06 00:19:57;;;;;;;3.85;2.70;;;;;;;18.74;54.09;101323.28;5129815;27;20039;-57
2022/11/06 00:22:22;;;;;;;5.43;3.10;;;;;;;18.74;53.96;101328.66;5139254;28;20028;-58
2022/11/06 00:24:48;;;;;;;4.15;3.05;;;;;;;18.73;54.06;101337.72;5135384;28;20023;-58
2022/11/06 00:27:14;;;;;;;4.00;2.85;;;;;;;18.73;53.98;101338.59;5129133;27;20039;-57
2022/11/06 00:29:39;;;;;;;5.85;3.08;;;;;;;18.64;54.03;101323.31;5134800;27;20050;-56
2022/11/06 00:32:05;;;;;;;4.10;3.40;;;;;;;18.72;53.80;101334.19;5137690;28;20491;-58
2022/11/06 00:34:30;;;;;;;4.45;3.03;;;;;;;18.72;54.18;101317.19;5130794;28;20059;-57
2022/11/06 00:36:55;;;;;;;4.78;2.85;;;;;;;18.71;53.98;101324.44;5130538;28;20027;-56
2022/11/06 00:39:20;;;;;;;5.00;3.40;;;;;;;18.67;53.81;101323.03;5137834;28;20092;-58
2022/11/06 00:41:46;;;;;;;4.13;2.70;;;;;;;18.70;53.76;101324.59;5123384;28;20032;-57
2022/11/06 00:44:11;;;;;;;4.03;2.70;;;;;;;18.70;53.76;101338.06;5124864;28;20119;-56
2022/11/06 00:46:36;;;;;;;3.65;2.60;;;;;;;18.59;53.61;101331.03;5134782;28;20120;-57
2022/11/06 00:49:02;;;;;;;3.95;3.03;;;;;;;18.68;53.80;101331.94;5122829;28;20476;-58
2022/11/06 00:51:31;;;;;;;5.50;2.63;;;;;;;18.67;53.88;101336.50;5128584;28;20027;-55
2022/11/06 00:53:58;;;;;;;3.70;2.58;;;;;;;18.67;53.69;101327.56;5144175;27;20031;-57
2022/11/06 00:56:24;;;;;;;4.13;2.50;;;;;;;18.66;54.06;101323.19;5124985;27;20023;-57
2022/11/06 00:58:49;;;;;;;4.88;3.10;;;;;;;18.63;53.83;101328.88;5136072;27;20049;-58
2022/11/06 01:01:17;;;;;;;3.53;2.80;;;;;;;18.66;54.02;101331.28;5138744;27;20023;-58
2022/11/06 01:03:44;;;;;;;3.45;2.60;;;;;;;18.66;53.61;101333.97;5127048;27;20024;-56
2022/11/06 01:06:16;;;;;;;3.47;2.53;;;;;;;18.64;53.98;101317.94;5130350;27;20015;-58
2022/11/06 01:08:41;;;;;;;3.28;2.35;;;;;;;18.64;54.13;101317.09;5128043;27;20051;-57
2022/11/06 01:11:06;;;;;;;3.92;2.72;;;;;;;18.64;53.69;101319.78;5138287;27;20028;-58
2022/11/06 01:13:32;;;;;;;4.60;2.63;;;;;;;18.63;53.98;101307.34;5135099;27;20027;-58
2022/11/06 01:15:57;;;;;;;3.63;2.67;;;;;;;18.63;54.03;101304.63;5127207;28;20027;-58
2022/11/06 01:18:23;;;;;;;3.00;2.47;;;;;;;18.62;53.90;101301.09;5139246;27;20502;-57
2022/11/06 01:20:48;;;;;;;4.75;2.95;;;;;;;18.62;53.94;101302.97;5140861;27;20031;-58
2022/11/06 01:23:13;;;;;;;3.30;2.22;;;;;;;18.61;53.66;101304.81;5139408;27;20113;-58
2022/11/06 01:25:38;;;;;;;3.70;2.47;;;;;;;18.60;53.73;101296.88;5132460;27;20030;-57
2022/11/06 01:28:04;;;;;;;4.28;2.83;;;;;;;18.60;53.96;101283.41;5136411;27;20026;-57
2022/11/06 01:30:29;;;;;;;2.78;2.30;;;;;;;18.59;53.99;101279.88;5140773;27;20023;-58
2022/11/06 01:32:54;;;;;;;4.68;2.80;;;;;;;18.59;54.14;101287.09;5134853;27;20019;-58
2022/11/06 01:35:20;;;;;;;4.53;2.97;;;;;;;18.58;53.65;101282.72;5132102;27;20023;-58
2022/11/06 01:37:45;;;;;;;3.22;2.28;;;;;;;18.58;53.78;101282.72;5126140;28;20020;-58
2022/11/06 01:40:10;;;;;;;4.57;2.33;;;;;;;18.58;53.98;101285.41;5138962;27;20027;-57
2022/11/06 01:42:35;;;;;;;3.47;2.60;;;;;;;18.57;53.81;101295.34;5131932;27;20086;-58
2022/11/06 01:45:23;;;;;;;3.42;2.30;;;;;;;18.56;53.64;101293.63;5136808;27;20114;-58
2022/11/06 01:47:48;;;;;;;4.00;2.55;;;;;;;18.56;54.01;101290.94;5138761;27;20015;-57
2022/11/06 01:50:14;;;;;;;3.63;2.42;;;;;;;18.48;53.94;101277.44;5136499;27;20026;-56
2022/11/06 01:52:41;;;;;;;3.58;2.30;;;;;;;18.49;53.97;101273.75;5132092;27;20068;-56
2022/11/06 01:55:10;;;;;;;3.88;2.60;;;;;;;18.51;53.87;101277.13;5137511;27;20114;-57
2022/11/06 01:57:36;;;;;;;4.20;2.75;;;;;;;18.47;53.79;101270.34;5128748;27;20058;-56
2022/11/06 02:00:03;;;;;;;2.92;2.00;;;;;;;18.54;53.53;101279.50;5142254;27;20463;-56
2022/11/06 02:02:29;;;;;;;4.28;2.67;;;;;;;18.53;53.68;101271.59;5136763;27;20026;-54
2022/11/06 02:04:54;;;;;;;2.97;2.47;;;;;;;18.53;53.90;101275.13;5130314;27;20019;-57
2022/11/06 02:07:20;;;;;;;3.08;2.08;;;;;;;18.52;53.85;101273.44;5131861;27;20087;-57
2022/11/06 02:09:45;;;;;;;4.18;2.08;;;;;;;18.41;53.55;101254.84;5124646;28;20023;-57
2022/11/06 02:12:18;;;;;;;2.67;2.10;;;;;;;18.51;53.80;101260.97;5124577;28;20080;-55
2022/11/06 02:15:00;;;;;;;2.92;2.28;;;;;;;18.51;53.82;101252.03;5131178;27;20023;-57
2022/11/06 02:17:45;;;;;;;4.88;2.10;;;;;;;18.49;53.90;101247.66;5135910;27;20058;-55
2022/11/06 02:20:13;;;;;;;3.17;2.40;;;;;;;18.49;53.76;101253.03;5125196;28;20034;-57
2022/11/06 02:23:00;;;;;;;3.30;2.07;;;;;;;18.48;53.74;101247.84;5125256;28;21054;-57
2022/11/06 02:25:40;;;;;;;3.15;2.00;;;;;;;18.48;53.73;101254.06;5129106;27;20259;-57
2022/11/06 02:28:10;;;;;;;3.33;2.28;;;;;;;18.47;53.91;101249.66;5143908;27;20034;-56
2022/11/06 02:30:40;;;;;;;3.33;2.30;;;;;;;18.46;53.62;101247.97;5122297;28;20049;-57
2022/11/06 02:33:10;;;;;;;3.10;2.17;;;;;;;18.46;53.88;101237.19;5137351;27;20035;-56
2022/11/06 02:35:37;;;;;;;3.47;2.25;;;;;;;18.46;53.75;101250.66;5129259;27;20026;-56
2022/11/06 02:38:07;;;;;;;2.72;2.10;;;;;;;18.46;53.62;101252.50;5134179;27;20030;-56
2022/11/06 02:40:36;;;;;;;2.72;2.17;;;;;;;18.44;54.04;101244.59;5138079;27;20035;-56
2022/11/06 02:43:04;;;;;;;4.32;2.50;;;;;;;18.45;53.79;101240.06;5133340;27;20534;-57
2022/11/06 02:45:34;;;;;;;2.72;1.90;;;;;;;18.44;53.73;101241.06;5129512;27;20051;-57
2022/11/06 02:47:59;;;;;;;2.92;2.20;;;;;;;18.45;54.03;101250.84;5136068;27;20047;-57
2022/11/06 02:50:31;;;;;;;3.08;2.22;;;;;;;18.39;53.69;101233.47;5123551;28;20031;-54
2022/11/06 02:52:57;;;;;;;2.63;2.00;;;;;;;18.44;53.99;101238.38;5126402;27;20051;-56
2022/11/06 02:55:28;;;;;;;3.13;2.00;;;;;;;18.37;53.89;101223.84;5133243;27;20027;-56
2022/11/06 02:57:57;;;;;;;3.15;2.08;;;;;;;18.41;53.88;101236.84;5138743;27;20030;-57
2022/11/06 03:00:24;;;;;;;3.08;2.00;;;;;;;18.41;53.83;101231.44;5135547;27;20087;-57
2022/11/06 03:03:07;;;;;;;2.85;2.10;;;;;;;18.41;53.60;101225.22;5129110;27;20019;-55
2022/11/06 03:05:42;;;;;;;3.40;2.17;;;;;;;18.23;53.88;101191.13;5131357;27;20058;-55
2022/11/06 03:08:13;;;;;;;2.78;2.05;;;;;;;18.40;53.61;101216.31;5123498;28;20111;-55
2022/11/06 03:10:46;;;;;;;3.05;2.00;;;;;;;18.40;53.64;101220.84;5135953;27;20079;-54
2022/11/06 03:13:22;;;;;;;3.58;2.30;;;;;;;18.40;53.88;101218.16;5138937;27;20027;-52
2022/11/06 03:15:59;;;;;;;3.72;2.13;;;;;;;18.39;53.88;101225.38;5137158;27;20031;-57
2022/11/06 03:18:50;;;;;;;4.00;1.90;;;;;;;18.39;53.90;101228.09;5123155;27;20027;-57
2022/11/06 03:21:24;;;;;;;2.85;2.00;;;;;;;18.37;54.02;101230.06;5137497;27;20079;-53
2022/11/06 03:23:56;;;;;;;2.58;2.10;;;;;;;18.29;53.89;101221.09;5143016;27;20023;-55
2022/11/06 03:26:27;;;;;;;3.78;2.08;;;;;;;18.36;53.64;101236.47;5127410;27;20084;-56
2022/11/06 03:28:59;;;;;;;3.10;2.50;;;;;;;18.36;53.66;101238.31;5130129;27;20110;-55
2022/11/06 03:31:38;;;;;;;2.67;1.83;;;;;;;18.36;53.57;101238.31;5129106;27;20055;-58
2022/11/06 03:34:07;;;;;;;3.05;1.70;;;;;;;18.36;54.06;101230.25;5131847;27;20038;-54
2022/11/06 03:36:41;;;;;;;3.53;1.85;;;;;;;18.35;53.49;101226.72;5128893;27;20081;-57
2022/11/06 03:39:37;;;;;;;3.78;2.08;;;;;;;18.34;53.77;101216.91;5130063;27;20086;-57
2022/11/06 03:42:09;;;;;;;3.05;1.90;;;;;;;18.32;53.78;101215.41;5109315;27;20110;-56
2022/11/06 03:44:39;;;;;;;3.25;2.13;;;;;;;18.33;53.88;101217.94;5132392;27;20028;-56
2022/11/06 03:47:30;;;;;;;2.63;2.10;;;;;;;18.32;53.60;101218.94;5137085;27;20088;-57
2022/11/06 03:50:04;;;;;;;2.15;1.77;;;;;;;18.28;53.62;101206.78;5135256;27;20035;-57
2022/11/06 03:52:33;;;;;;;2.80;2.15;;;;;;;18.31;53.68;101217.25;5128703;27;20054;-58
2022/11/06 03:55:09;;;;;;;2.47;2.10;;;;;;;18.24;53.99;101206.25;5132020;27;20095;-55
2022/11/06 03:57:39;;;;;;;2.75;2.10;;;;;;;18.23;53.87;101212.66;5137793;27;20016;-53
2022/11/06 04:00:07;;;;;;;3.30;2.20;;;;;;;18.32;53.60;101220.78;5135207;27;20015;-56
2022/11/06 04:02:33;;;;;;;3.50;2.10;;;;;;;18.21;53.66;101200.34;5128184;27;20034;-58
2022/11/06 04:05:02;;;;;;;3.17;1.73;;;;;;;18.23;53.59;101199.19;5132279;27;20028;-57
2022/11/06 04:07:33;;;;;;;1.92;1.73;;;;;;;18.29;53.53;101210.31;5139538;28;20056;-54
2022/11/06 04:15:32;;;;;;;2.80;2.00;;;;;;;18.30;53.57;101199.38;5130016;28;20053;-56
2022/11/06 04:17:58;;;;;;;2.13;1.67;;;;;;;18.26;53.76;101189.09;5138034;28;20065;-55
2022/11/06 04:23:37;;;;;;;2.22;1.70;;;;;;;18.30;53.51;101203.94;5130510;28;20060;-58
2022/11/06 04:26:37;;;;;;;2.70;2.10;;;;;;;18.30;53.47;101194.00;5126526;28;20026;-58
2022/11/06 04:29:12;;;;;;;3.08;1.80;;;;;;;18.29;53.51;101178.03;5131292;28;20081;-57
2022/11/06 04:31:50;;;;;;;1.95;1.70;;;;;;;18.28;53.42;101174.50;5142481;28;20034;-56
2022/11/06 04:34:22;;;;;;;4.03;1.80;;;;;;;18.28;53.58;101179.03;5142653;28;20027;-56
2022/11/06 04:36:57;;;;;;;2.63;2.08;;;;;;;18.29;53.89;101175.34;5142942;27;20071;-57
2022/11/06 04:39:55;;;;;;;3.08;2.00;;;;;;;18.26;53.31;101172.94;5127688;28;20045;-58
2022/11/06 04:42:28;;;;;;;2.08;1.60;;;;;;;18.28;53.51;101177.19;5110524;28;20088;-58
2022/11/06 04:45:23;;;;;;;2.22;1.70;;;;;;;18.28;53.74;101170.97;5139756;27;20038;-56
2022/11/06 04:47:50;;;;;;;1.92;1.70;;;;;;;18.28;53.51;101152.13;5123660;28;20050;-57
2022/11/06 04:50:17;;;;;;;3.35;1.85;;;;;;;18.28;53.49;101165.56;5144369;27;20023;-57
2022/11/06 04:52:43;;;;;;;2.85;1.80;;;;;;;18.28;53.78;101170.97;5133557;27;20455;-55
2022/11/06 04:55:08;;;;;;;3.75;1.70;;;;;;;18.27;53.83;101166.59;5132631;27;20034;-57
2022/11/06 04:57:34;;;;;;;2.03;1.40;;;;;;;18.27;53.71;101156.66;5141648;27;20028;-57
2022/11/06 04:59:59;;;;;;;2.05;1.60;;;;;;;18.26;53.79;101146.03;5138356;27;20015;-58
2022/11/06 05:02:24;;;;;;;1.95;1.50;;;;;;;18.28;53.68;101146.75;5132166;27;20027;-56
2022/11/06 05:04:50;;;;;;;2.35;1.65;;;;;;;18.27;53.49;101153.13;5135818;27;20118;-57
2022/11/06 05:07:15;;;;;;;2.25;1.90;;;;;;;18.27;53.45;101147.75;5128652;27;20027;-56
2022/11/06 05:09:41;;;;;;;3.47;1.92;;;;;;;18.27;53.74;101162.03;5130946;27;20019;-57
2022/11/06 05:12:06;;;;;;;2.17;1.70;;;;;;;18.26;53.65;101156.81;5127302;27;20027;-57
2022/11/06 05:14:32;;;;;;;1.90;1.70;;;;;;;18.15;53.59;101145.31;5128141;27;20036;-56
2022/11/06 05:16:57;;;;;;;2.80;1.60;;;;;;;18.26;53.56;101154.09;5127978;27;20679;-54
2022/11/06 05:19:23;;;;;;;1.70;1.42;;;;;;;18.26;53.68;101154.94;5132979;27;20035;-56
2022/11/06 05:24:32;;;;;;;3.28;1.80;;;;;;;18.28;53.55;101160.19;5126313;27;20038;-56
2022/11/06 05:26:57;;;;;;;2.85;2.10;;;;;;;18.27;53.94;101156.66;5141049;27;20048;-55
2022/11/06 05:29:22;;;;;;;3.25;1.50;;;;;;;18.23;53.94;101145.38;5125723;28;20024;-56
2022/11/06 05:31:47;;;;;;;3.40;1.75;;;;;;;18.29;54.09;101156.50;5128459;27;20023;-56
2022/11/06 05:34:13;;;;;;;3.05;1.90;;;;;;;18.29;53.53;101153.81;5128281;27;20034;-55
2022/11/06 05:36:38;;;;;;;2.17;1.63;;;;;;;18.29;54.12;101154.66;5128227;27;20028;-56
2022/11/06 05:39:03;;;;;;;2.63;1.75;;;;;;;18.23;54.21;101139.13;5130308;27;20023;-57
2022/11/06 05:41:29;;;;;;;2.65;2.05;;;;;;;18.29;54.06;101141.19;5128827;27;20774;-55
2022/11/06 05:43:54;;;;;;;3.70;1.60;;;;;;;18.31;54.40;101149.97;5129074;27;20082;-55
2022/11/06 05:46:19;;;;;;;3.58;1.88;;;;;;;18.24;54.45;101143.50;5125566;27;20044;-56
2022/11/06 05:48:44;;;;;;;3.22;1.63;;;;;;;18.33;54.40;101158.72;5126578;27;20053;-55
2022/11/06 05:51:10;;;;;;;2.85;1.63;;;;;;;18.33;54.14;101155.19;5128777;27;20482;-55
2022/11/06 05:53:35;;;;;;;2.35;1.60;;;;;;;18.34;54.53;101141.53;5132800;27;20033;-56
2022/11/06 05:56:01;;;;;;;2.78;1.60;;;;;;;18.34;54.29;101133.47;5134654;27;20088;-58
2022/11/06 05:58:27;;;;;;;3.30;1.58;;;;;;;18.35;54.49;101129.78;5134419;27;20011;-57
2022/11/06 06:00:56;;;;;;;3.40;1.60;;;;;;;18.33;54.52;101129.09;5132159;27;20033;-57
2022/11/06 06:03:21;;;;;;;;;;;;;;;18.32;54.66;101124.72;5135648;27;20027;-53
2022/11/06 06:05:47;;;;;;;1.80;1.50;;;;;;;18.36;54.38;101127.94;5133772;27;19914;-56
2022/11/06 06:08:12;;;;;;;3.08;1.60;;;;;;;18.34;54.33;101122.69;5131729;27;20015;-57
2022/11/06 06:10:42;;;;;;;2.78;1.80;;;;;;;18.34;54.20;101122.69;5137612;27;20035;-57
2022/11/06 06:13:07;;;;;;;3.90;1.50;;;;;;;18.35;55.12;101118.16;5131827;27;20551;-56
2022/11/06 06:15:32;;;;;;;1.75;1.38;;;;;;;18.35;54.42;101110.09;5131939;27;20028;-56
2022/11/06 06:17:58;;;;;;;3.03;1.60;;;;;;;18.35;54.52;101110.09;5136635;27;20032;-56
2022/11/06 06:20:23;;;;;;;2.75;1.65;;;;;;;18.34;54.76;101094.94;5128672;27;20047;-55
2022/11/06 06:22:55;;;;;;;3.35;1.42;;;;;;;18.34;54.64;101103.03;5132002;27;20038;-57
2022/11/06 06:25:20;;;;;;;3.67;1.45;;;;;;;18.30;54.57;101096.25;5128561;27;20031;-56
2022/11/06 06:27:46;;;;;;;2.45;1.50;;;;;;;18.36;54.81;101118.03;5127029;27;20560;-56
2022/11/06 06:30:11;;;;;;;2.97;1.45;;;;;;;18.36;54.50;101101.88;5126221;27;20027;-55
2022/11/06 06:32:36;;;;;;;4.10;1.77;;;;;;;18.36;54.73;101101.03;5126039;27;20352;-57
2022/11/06 06:35:02;;;;;;;2.67;1.58;;;;;;;18.37;54.50;101090.09;5132017;27;20034;-58
2022/11/06 06:37:27;;;;;;;2.05;1.52;;;;;;;18.37;54.51;101100.00;5136552;27;20050;-57
2022/11/06 06:39:52;;;;;;;3.42;1.52;;;;;;;18.37;54.50;101095.47;5128496;27;20035;-56
2022/11/06 06:42:18;;;;;;;4.22;1.83;;;;;;;18.36;54.54;101084.88;5125066;27;20027;-56
2022/11/06 06:44:43;;;;;;;4.05;1.58;;;;;;;18.38;54.53;101090.94;5127251;27;20023;-55
2022/11/06 06:47:08;;;;;;;2.03;1.30;;;;;;;18.38;54.81;101085.53;5132840;27;20039;-56
2022/11/06 06:49:34;;;;;;;13.18;1.83;;;;;;;18.37;54.91;101084.69;5132465;27;20087;-56
2022/11/06 06:52:00;;;;;;;2.65;1.30;;;;;;;18.38;54.75;101085.53;5130838;27;20023;-56
2022/11/06 06:54:25;;;;;;;3.90;1.30;;;;;;;18.38;54.87;101091.78;5127650;27;20046;-57
2022/11/06 06:56:50;;;;;;;4.43;1.63;;;;;;;18.41;54.87;101098.69;5124682;28;20023;-58
2022/11/06 06:59:15;;;;;;;2.55;1.40;;;;;;;18.40;54.56;101086.25;5128569;27;20024;-57
2022/11/06 07:01:41;;;;;;;2.78;1.60;;;;;;;18.42;54.48;101089.59;5140648;27;20030;-54
2022/11/06 07:04:07;;;;;;;1.65;1.23;;;;;;;18.43;54.58;101091.28;5140515;27;20107;-57
2022/11/06 07:06:33;;;;;;;3.42;1.50;;;;;;;18.43;54.92;101091.28;5133143;27;20015;-56
2022/11/06 07:08:58;;;;;;;3.55;1.40;;;;;;;18.43;54.83;101088.59;5127147;27;20024;-58
2022/11/06 07:11:23;;;;;;;3.15;1.45;;;;;;;18.45;54.75;101081.22;5128472;27;20029;-56
2022/11/06 07:13:49;;;;;;;2.38;1.38;;;;;;;18.41;54.52;101083.38;5127350;27;20015;-57
2022/11/06 07:16:14;;;;;;;2.80;1.20;;;;;;;18.47;54.56;101088.09;5128488;27;20583;-56
2022/11/06 07:18:39;;;;;;;2.10;1.30;;;;;;;18.49;55.20;101096.03;5129060;27;20015;-56
2022/11/06 07:21:07;;;;;;;1.98;1.30;;;;;;;18.51;54.61;101090.47;5127595;27;20030;-57
2022/11/06 07:23:35;;;;;;;1.58;1.20;;;;;;;18.50;54.96;101084.25;5130516;27;20023;-57
2022/11/06 07:26:02;;;;;;;3.22;1.33;;;;;;;18.53;54.92;101083.09;5144101;27;20034;-57
2022/11/06 07:28:27;;;;;;;2.65;1.45;;;;;;;18.51;54.74;101077.88;5126061;27;20036;-58
2022/11/06 07:31:00;;;;;;;1.48;1.20;;;;;;;18.49;54.61;101078.03;5123861;27;20035;-56
2022/11/06 07:33:26;;;;;;;2.63;1.30;;;;;;;18.41;54.59;101053.75;5124468;27;20030;-55
2022/11/06 07:35:51;;;;;;;1.90;1.40;;;;;;;18.53;54.60;101075.88;5124071;27;20035;-57
2022/11/06 07:38:16;;;;;;;3.45;2.35;;;;;;;18.42;54.51;101065.38;5124244;27;20050;-57
2022/11/06 07:40:41;;;;;;;3.20;1.50;;;;;;;18.54;54.49;101074.00;5124534;27;20407;-57
2022/11/06 07:43:08;;;;;;;2.53;1.42;;;;;;;18.56;54.48;101070.13;5136079;27;20048;-56
2022/11/06 07:45:34;;;;;;;2.00;1.17;;;;;;;18.48;54.37;101046.75;5143483;27;20050;-57
2022/11/06 07:47:59;;;;;;;2.30;1.30;;;;;;;18.49;54.36;101045.72;5133782;27;20028;-57
2022/11/06 07:50:25;;;;;;;2.67;1.20;;;;;;;18.51;54.07;101055.47;5123740;27;20117;-57
2022/11/06 07:52:50;;;;;;;1.40;1.15;;;;;;;18.62;53.98;101069.50;5123962;28;20049;-58
2022/11/06 07:55:16;;;;;;;2.47;1.63;;;;;;;18.65;54.12;101073.72;5123980;27;20019;-58
2022/11/06 07:57:41;;;;;;;2.30;1.40;;;;;;;18.63;53.79;101068.50;5124476;28;20678;-59
2022/11/06 08:00:07;;;;;;;2.90;1.45;;;;;;;18.58;54.03;101048.44;5135439;27;20030;-58
2022/11/06 08:02:32;;;;;;;2.60;1.42;;;;;;;18.62;54.06;101050.66;5143609;27;20448;-59
2022/11/06 08:04:57;;;;;;;2.25;1.25;;;;;;;18.67;53.54;101052.84;5143474;27;20096;-58
2022/11/06 08:07:22;;;;;;;1.38;1.10;;;;;;;18.64;53.97;101051.31;5141887;27;20023;-57
2022/11/06 08:09:48;;;;;;;2.83;1.20;;;;;;;18.69;53.56;101054.41;5133239;27;20035;-58
2022/11/06 08:12:13;;;;;;;2.10;1.40;;;;;;;18.70;53.83;101058.78;5143436;28;20482;-58
2022/11/06 08:14:39;;;;;;;1.80;1.33;;;;;;;18.71;53.72;101059.63;5126714;28;20019;-58
2022/11/06 08:17:04;;;;;;;3.05;1.20;;;;;;;18.72;53.80;101066.69;5123713;28;20091;-57
2022/11/06 08:19:29;;;;;;;2.50;1.20;;;;;;;18.72;53.34;101066.69;5123864;28;20032;-58
2022/11/06 08:21:55;;;;;;;3.22;1.77;;;;;;;18.65;53.61;101061.09;5124136;28;20083;-58
2022/11/06 08:24:20;;;;;;;1.73;1.13;;;;;;;18.72;53.44;101081.00;5123749;28;20054;-58
2022/11/06 08:26:45;;;;;;;2.10;1.50;;;;;;;18.72;53.42;101077.47;5138246;28;20027;-58
2022/11/06 08:29:10;;;;;;;2.40;1.50;;;;;;;18.68;53.34;101058.06;5132702;28;20055;-57
2022/11/06 08:31:36;;;;;;;2.75;1.75;;;;;;;18.72;53.27;101055.91;5129805;28;20027;-58
2022/11/06 08:34:01;;;;;;;1.30;1.00;;;;;;;18.73;53.24;101054.91;5135984;27;20035;-57
2022/11/06 08:36:26;;;;;;;3.75;1.30;;;;;;;18.71;53.58;101047.00;5137214;28;20034;-58
2022/11/06 08:38:52;;;;;;;2.60;1.40;;;;;;;18.73;53.34;101046.81;5128797;27;20095;-58
2022/11/06 08:41:17;;;;;;;2.25;1.05;;;;;;;18.72;53.60;101054.06;5132106;28;20043;-58
2022/11/06 08:43:42;;;;;;;1.70;1.08;;;;;;;18.63;53.45;101027.25;5141324;28;20076;-58
2022/11/06 08:46:09;;;;;;;1.60;1.20;;;;;;;18.72;53.61;101039.75;5134260;28;20043;-58
2022/11/06 08:48:34;;;;;;;2.17;1.27;;;;;;;18.59;53.43;101010.56;5122995;28;20054;-58
2022/11/06 08:51:00;;;;;;;2.72;1.20;;;;;;;18.69;53.51;101018.50;5123194;28;20083;-58
2022/11/06 08:53:25;;;;;;;1.58;1.10;;;;;;;18.74;53.26;101021.59;5136628;28;20056;-58
2022/11/06 08:55:50;;;;;;;1.80;1.17;;;;;;;18.75;53.54;101022.44;5124374;28;20028;-58
2022/11/06 08:58:16;;;;;;;1.27;0.90;;;;;;;18.70;53.42;101014.84;5122930;28;20078;-57
2022/11/06 09:00:41;;;;;;;1.88;1.00;;;;;;;18.76;53.39;101003.41;5137730;28;20536;-57
2022/11/06 09:03:10;;;;;;;2.50;1.13;;;;;;;18.77;53.32;101006.94;5132362;28;20027;-58
2022/11/06 09:05:38;;;;;;;2.08;1.30;;;;;;;18.75;53.37;101006.28;5128701;27;20031;-58
2022/11/06 09:08:03;;;;;;;2.33;1.27;;;;;;;18.47;53.28;100963.41;5143884;27;20015;-58
2022/11/06 09:10:29;;;;;;;1.60;1.10;;;;;;;18.81;52.98;101003.75;5129415;28;20030;-57
2022/11/06 09:12:57;;;;;;;2.15;1.20;;;;;;;18.83;53.15;100998.22;5140042;28;20030;-58
2022/11/06 09:15:22;;;;;;;1.70;1.20;;;;;;;18.85;53.32;100997.03;5131337;27;20031;-57
2022/11/06 09:17:49;;;;;;;3.10;1.23;;;;;;;18.87;53.34;100997.72;5127078;28;20015;-58
2022/11/06 09:20:16;;;;;;;2.25;1.20;;;;;;;18.88;52.83;100999.41;5133025;27;20028;-58
2022/11/06 09:22:41;;;;;;;2.10;1.10;;;;;;;18.89;53.04;100994.84;5138430;27;20113;-55
2022/11/06 09:25:08;;;;;;;1.17;0.95;;;;;;;18.89;53.28;100984.91;5130952;27;20032;-59
2022/11/06 09:27:47;;;;;;;3.15;1.30;;;;;;;18.89;53.26;100990.28;5136759;27;20062;-56
2022/11/06 09:30:14;;;;;;;1.40;1.08;;;;;;;18.90;52.84;100983.94;5132742;27;20027;-57
2022/11/06 09:32:51;;;;;;;1.77;1.08;;;;;;;18.89;53.09;100982.22;5136471;27;20024;-57
2022/11/06 09:35:17;;;;;;;2.88;1.25;;;;;;;18.89;53.15;100976.00;5129819;27;20030;-58
2022/11/06 09:37:42;;;;;;;1.40;1.08;;;;;;;18.90;53.28;100980.34;5137179;27;20024;-58
2022/11/06 09:40:25;;;;;;;1.27;1.00;;;;;;;18.91;53.34;100979.38;5139684;27;20030;-58
2022/11/06 09:43:20;;;;;;;1.83;1.02;;;;;;;18.93;52.79;100967.41;5137033;27;20199;-58
2022/11/06 09:45:47;;;;;;;2.38;1.38;;;;;;;18.96;52.67;100967.06;5083474;28;20055;-57
2022/11/06 09:48:20;;;;;;;1.92;1.10;;;;;;;19.00;52.69;100970.28;5137916;27;20035;-57
2022/11/06 09:51:13;;;;;;;1.73;1.10;;;;;;;19.05;52.64;100965.22;5126089;27;20024;-57
2022/11/06 09:53:46;;;;;;;1.83;0.95;;;;;;;19.08;52.55;100966.75;5126273;28;20034;-57
2022/11/06 09:56:12;;;;;;;2.42;1.20;;;;;;;19.08;52.76;100956.81;5124808;28;20459;-57
2022/11/06 09:58:40;;;;;;;2.83;1.20;;;;;;;19.12;52.58;100957.31;5139173;27;20026;-53
2022/11/06 10:01:15;;;;;;;2.13;1.40;;;;;;;19.13;52.47;100949.06;5131586;27;20383;-58
2022/11/06 10:03:46;;;;;;;1.55;1.25;;;;;;;19.21;52.13;100948.22;5132494;27;20511;-57
2022/11/06 10:06:11;;;;;;;2.75;1.20;;;;;;;19.24;52.47;100942.47;5144869;27;20027;-58
2022/11/06 10:08:37;;;;;;;2.00;1.00;;;;;;;19.24;52.28;100950.56;5143248;27;20107;-56
2022/11/06 10:11:13;;;;;;;1.98;1.30;;;;;;;19.22;52.21;100949.91;5138943;27;20031;-57
2022/11/06 10:13:57;;;;;;;2.25;1.15;;;;;;;19.21;52.41;100948.22;5137723;27;20048;-58
2022/11/06 10:16:25;;;;;;;1.50;0.90;;;;;;;19.19;52.50;100950.22;5132205;27;20023;-55
2022/11/06 10:19:05;;;;;;;2.08;1.10;;;;;;;19.17;52.41;100939.63;5133211;27;20028;-54
2022/11/06 10:21:42;;;;;;;1.55;1.15;;;;;;;19.16;52.30;100945.19;5124357;28;20038;-58
2022/11/06 10:24:20;;;;;;;1.40;0.80;;;;;;;19.14;52.74;100945.34;5124775;28;20034;-57
2022/11/06 10:26:50;;;;;;;1.15;0.77;;;;;;;19.14;52.59;100926.47;5139775;27;20058;-57
2022/11/06 10:29:34;;;;;;;1.33;1.23;;;;;;;19.13;52.73;100919.41;5134760;27;20023;-57
2022/11/06 10:32:21;;;;;;;1.90;1.20;;;;;;;19.14;52.78;100912.16;5131158;27;20015;-57
2022/11/06 10:34:49;;;;;;;3.08;1.23;;;;;;;19.12;52.41;100915.03;5130870;27;20031;-58
2022/11/06 10:37:25;;;;;;;2.17;1.23;;;;;;;19.14;52.61;100912.16;5130275;27;20037;-58
2022/11/06 10:39:52;;;;;;;1.10;0.80;;;;;;;19.14;52.61;100915.69;5144246;27;20022;-57
2022/11/06 10:42:19;;;;;;;1.88;0.95;;;;;;;19.16;52.56;100902.91;5138189;27;20025;-56
2022/11/06 10:44:50;;;;;;;1.50;0.80;;;;;;;19.18;52.32;100894.63;5137320;27;20067;-58
2022/11/06 10:47:19;;;;;;;1.77;0.77;;;;;;;19.20;52.50;100889.94;5130011;27;20571;-58
2022/11/06 10:49:49;;;;;;;1.77;0.90;;;;;;;19.23;52.22;100889.56;5133857;27;20019;-59
2022/11/06 10:52:20;;;;;;;2.38;1.05;;;;;;;19.23;52.22;100886.88;5125088;28;20527;-58
2022/11/06 10:55:04;;;;;;;1.17;0.95;;;;;;;19.23;52.47;100895.81;5124614;28;20032;-57
2022/11/06 10:57:38;;;;;;;1.10;0.80;;;;;;;19.21;52.62;100892.44;5123544;28;20027;-57
2022/11/06 11:00:04;;;;;;;0.93;0.80;;;;;;;19.21;52.33;100886.22;5123393;28;20023;-59
2022/11/06 11:02:35;;;;;;;1.17;0.90;;;;;;;19.21;52.59;100883.53;5129087;27;20082;-58
2022/11/06 11:05:00;;;;;;;2.60;0.93;;;;;;;19.20;52.44;100882.69;5132933;27;20114;-59
2022/11/06 11:07:30;;;;;;;2.25;0.90;;;;;;;19.19;52.49;100878.28;5141344;27;20082;-58
2022/11/06 11:09:55;;;;;;;1.38;0.90;;;;;;;19.20;52.42;100882.69;5140069;27;20027;-58
2022/11/06 11:12:28;;;;;;;1.75;1.00;;;;;;;19.20;52.64;100885.38;5141050;27;20130;-58
2022/11/06 11:15:05;;;;;;;1.40;1.05;;;;;;;19.19;52.46;100872.91;5134547;27;20027;-58
2022/11/06 11:17:30;;;;;;;1.10;0.93;;;;;;;19.23;52.61;100876.09;5126009;27;20031;-58
2022/11/06 11:19:55;;;;;;;1.45;0.88;;;;;;;19.26;52.45;100866.84;5137089;27;20023;-58
2022/11/06 11:22:21;;;;;;;1.50;1.10;;;;;;;19.23;52.44;100862.63;5138218;27;20046;-58
2022/11/06 11:24:59;;;;;;;1.77;1.00;;;;;;;19.28;52.64;100854.00;5128575;27;20019;-59
2022/11/06 11:27:24;;;;;;;1.42;0.90;;;;;;;19.30;52.04;100842.06;5132153;27;20027;-58
2022/11/06 11:29:50;;;;;;;1.77;0.90;;;;;;;19.35;52.09;100847.78;5128513;27;20051;-59
2022/11/06 11:32:17;;;;;;;1.27;1.00;;;;;;;19.37;52.05;100840.38;5137747;27;20022;-58
2022/11/06 11:34:45;;;;;;;1.80;1.00;;;;;;;19.39;52.29;100842.88;5122471;28;20039;-58
2022/11/06 11:37:23;;;;;;;1.10;0.75;;;;;;;19.38;52.12;100833.13;5137264;27;20008;-57
2022/11/06 11:39:48;;;;;;;2.10;1.30;;;;;;;19.39;52.04;100827.53;5123785;27;20024;-57
2022/11/06 11:42:30;;;;;;;0.98;0.90;;;;;;;19.33;52.26;100812.06;5138508;27;20027;-56